sensor_id;sensor_type;location;lat;lon;timestamp;temperature;humidity
52509;DHT22;38420;53.150;6.370;2022-08-19T00:01:28;15.00;99.90
52509;DHT22;38420;53.150;6.370;2022-08-19T00:03:57;15.10;99.90
52509;DHT22;38420;53.150;6.370;2022-08-19T00:06:22;15.50;99.90
52509;DHT22;38420;53.150;6.370;2022-08-19T00:08:48;15.30;99.90
52509;DHT22;38420;53.150;6.370;2022-08-19T00:11:13;15.30;99.90
52509;DHT22;38420;53.150;6.370;2022-08-19T00:13:39;15.10;99.90
52509;DHT22;38420;53.150;6.370;2022-08-19T00:16:05;15.90;99.90
52509;DHT22;38420;53.150;6.370;2022-08-19T00:18:31;15.10;99.90
52509;DHT22;38420;53.150;6.370;2022-08-19T00:20:58;15.30;99.90
52509;DHT22;38420;53.150;6.370;2022-08-19T00:23:25;15.40;99.90
52509;DHT22;38420;53.150;6.370;2022-08-19T00:25:50;16.20;99.90
52509;DHT22;38420;53.150;6.370;2022-08-19T00:28:17;15.60;99.90
52509;DHT22;38420;53.150;6.370;2022-08-19T00:30:43;15.40;99.90
52509;DHT22;38420;53.150;6.370;2022-08-19T00:33:09;15.30;99.90
52509;DHT22;38420;53.150;6.370;2022-08-19T00:35:34;15.40;99.90
52509;DHT22;38420;53.150;6.370;2022-08-19T00:38:00;15.80;99.90
52509;DHT22;38420;53.150;6.370;2022-08-19T00:40:25;16.00;99.90
52509;DHT22;38420;53.150;6.370;2022-08-19T00:42:51;15.20;99.90
52509;DHT22;38420;53.150;6.370;2022-08-19T00:45:19;15.60;99.90
52509;DHT22;38420;53.150;6.370;2022-08-19T00:47:45;14.90;99.90
52509;DHT22;38420;53.150;6.370;2022-08-19T00:50:12;15.00;99.90
52509;DHT22;38420;53.150;6.370;2022-08-19T00:52:40;15.70;99.90
52509;DHT22;38420;53.150;6.370;2022-08-19T00:55:09;15.10;99.90
52509;DHT22;38420;53.150;6.370;2022-08-19T00:57:39;15.90;99.90
52509;DHT22;38420;53.150;6.370;2022-08-19T01:00:06;14.90;99.90
52509;DHT22;38420;53.150;6.370;2022-08-19T01:02:32;15.00;99.90
52509;DHT22;38420;53.150;6.370;2022-08-19T01:04:59;15.30;99.90
52509;DHT22;38420;53.150;6.370;2022-08-19T01:07:25;14.90;99.90
52509;DHT22;38420;53.150;6.370;2022-08-19T01:09:51;14.90;99.90
52509;DHT22;38420;53.150;6.370;2022-08-19T01:12:16;14.60;99.90
52509;DHT22;38420;53.150;6.370;2022-08-19T01:14:42;15.20;99.90
52509;DHT22;38420;53.150;6.370;2022-08-19T01:17:09;14.70;99.90
52509;DHT22;38420;53.150;6.370;2022-08-19T01:19:36;14.60;99.90
52509;DHT22;38420;53.150;6.370;2022-08-19T01:22:06;15.20;99.90
52509;DHT22;38420;53.150;6.370;2022-08-19T01:24:33;14.50;99.90
52509;DHT22;38420;53.150;6.370;2022-08-19T01:26:59;14.50;99.90
52509;DHT22;38420;53.150;6.370;2022-08-19T01:29:24;14.50;99.90
52509;DHT22;38420;53.150;6.370;2022-08-19T01:31:50;14.30;99.90
52509;DHT22;38420;53.150;6.370;2022-08-19T01:34:17;14.60;99.90
52509;DHT22;38420;53.150;6.370;2022-08-19T01:36:44;14.80;99.90
52509;DHT22;38420;53.150;6.370;2022-08-19T01:39:13;14.60;99.90
52509;DHT22;38420;53.150;6.370;2022-08-19T01:41:39;15.00;99.90
52509;DHT22;38420;53.150;6.370;2022-08-19T01:44:05;14.50;99.90
52509;DHT22;38420;53.150;6.370;2022-08-19T01:46:31;14.40;99.90
52509;DHT22;38420;53.150;6.370;2022-08-19T01:48:57;14.30;99.90
52509;DHT22;38420;53.150;6.370;2022-08-19T01:51:23;14.50;99.90
52509;DHT22;38420;53.150;6.370;2022-08-19T01:53:49;14.40;99.90
52509;DHT22;38420;53.150;6.370;2022-08-19T01:56:16;14.50;99.90
52509;DHT22;38420;53.150;6.370;2022-08-19T01:58:44;14.40;99.90
52509;DHT22;38420;53.150;6.370;2022-08-19T02:01:11;14.20;99.90
52509;DHT22;38420;53.150;6.370;2022-08-19T02:03:37;14.40;99.90
52509;DHT22;38420;53.150;6.370;2022-08-19T02:06:03;14.30;99.90
52509;DHT22;38420;53.150;6.370;2022-08-19T02:08:30;14.30;99.90
52509;DHT22;38420;53.150;6.370;2022-08-19T02:10:56;15.30;99.90
52509;DHT22;38420;53.150;6.370;2022-08-19T02:13:22;15.00;99.90
52509;DHT22;38420;53.150;6.370;2022-08-19T02:15:48;14.10;99.90
52509;DHT22;38420;53.150;6.370;2022-08-19T02:18:14;14.20;99.90
52509;DHT22;38420;53.150;6.370;2022-08-19T02:20:40;14.20;99.90
52509;DHT22;38420;53.150;6.370;2022-08-19T02:23:06;14.50;99.90
52509;DHT22;38420;53.150;6.370;2022-08-19T02:25:32;14.70;99.90
52509;DHT22;38420;53.150;6.370;2022-08-19T02:27:57;14.20;99.90
52509;DHT22;38420;53.150;6.370;2022-08-19T02:30:24;14.40;99.90
52509;DHT22;38420;53.150;6.370;2022-08-19T02:32:50;14.30;99.90
52509;DHT22;38420;53.150;6.370;2022-08-19T02:35:16;14.40;99.90
52509;DHT22;38420;53.150;6.370;2022-08-19T02:37:42;15.00;99.90
52509;DHT22;38420;53.150;6.370;2022-08-19T02:40:27;14.20;99.90
52509;DHT22;38420;53.150;6.370;2022-08-19T02:42:53;14.00;99.90
52509;DHT22;38420;53.150;6.370;2022-08-19T02:45:18;14.20;99.90
52509;DHT22;38420;53.150;6.370;2022-08-19T02:47:44;14.00;99.90
52509;DHT22;38420;53.150;6.370;2022-08-19T02:50:09;14.00;99.90
52509;DHT22;38420;53.150;6.370;2022-08-19T02:52:35;14.30;99.90
52509;DHT22;38420;53.150;6.370;2022-08-19T02:55:01;14.20;99.90
52509;DHT22;38420;53.150;6.370;2022-08-19T02:57:27;14.30;99.90
52509;DHT22;38420;53.150;6.370;2022-08-19T02:59:52;14.70;99.90
52509;DHT22;38420;53.150;6.370;2022-08-19T03:02:18;14.20;99.90
52509;DHT22;38420;53.150;6.370;2022-08-19T03:04:44;14.30;99.90
52509;DHT22;38420;53.150;6.370;2022-08-19T03:07:12;14.40;99.90
52509;DHT22;38420;53.150;6.370;2022-08-19T03:09:38;14.00;99.90
52509;DHT22;38420;53.150;6.370;2022-08-19T03:12:04;14.80;99.90
52509;DHT22;38420;53.150;6.370;2022-08-19T03:14:30;14.20;99.90
52509;DHT22;38420;53.150;6.370;2022-08-19T03:16:56;14.30;99.90
52509;DHT22;38420;53.150;6.370;2022-08-19T03:19:22;14.00;99.90
52509;DHT22;38420;53.150;6.370;2022-08-19T03:21:48;14.00;99.90
52509;DHT22;38420;53.150;6.370;2022-08-19T03:24:14;14.70;99.90
52509;DHT22;38420;53.150;6.370;2022-08-19T03:26:41;14.60;99.90
52509;DHT22;38420;53.150;6.370;2022-08-19T03:29:07;14.80;99.90
52509;DHT22;38420;53.150;6.370;2022-08-19T03:31:35;14.10;99.90
52509;DHT22;38420;53.150;6.370;2022-08-19T03:34:00;14.20;99.90
52509;DHT22;38420;53.150;6.370;2022-08-19T03:36:26;14.20;99.90
52509;DHT22;38420;53.150;6.370;2022-08-19T03:38:54;13.90;99.90
52509;DHT22;38420;53.150;6.370;2022-08-19T03:41:20;14.20;99.90
52509;DHT22;38420;53.150;6.370;2022-08-19T03:43:47;13.90;99.90
52509;DHT22;38420;53.150;6.370;2022-08-19T03:46:15;14.00;99.90
52509;DHT22;38420;53.150;6.370;2022-08-19T03:48:41;14.20;99.90
52509;DHT22;38420;53.150;6.370;2022-08-19T03:51:07;14.80;99.90
52509;DHT22;38420;53.150;6.370;2022-08-19T03:53:34;14.10;99.90
52509;DHT22;38420;53.150;6.370;2022-08-19T03:56:00;14.20;99.90
52509;DHT22;38420;53.150;6.370;2022-08-19T03:58:27;14.80;99.90
52509;DHT22;38420;53.150;6.370;2022-08-19T04:00:54;14.10;99.90
52509;DHT22;38420;53.150;6.370;2022-08-19T04:03:19;14.10;99.90
52509;DHT22;38420;53.150;6.370;2022-08-19T04:05:45;14.70;99.90
52509;DHT22;38420;53.150;6.370;2022-08-19T04:08:12;14.50;99.90
52509;DHT22;38420;53.150;6.370;2022-08-19T04:10:37;13.80;99.90
52509;DHT22;38420;53.150;6.370;2022-08-19T04:13:03;14.20;99.90
52509;DHT22;38420;53.150;6.370;2022-08-19T04:15:30;14.60;99.90
52509;DHT22;38420;53.150;6.370;2022-08-19T04:17:59;14.00;99.90
52509;DHT22;38420;53.150;6.370;2022-08-19T04:20:24;14.70;99.90
52509;DHT22;38420;53.150;6.370;2022-08-19T04:22:50;14.20;99.90
52509;DHT22;38420;53.150;6.370;2022-08-19T04:25:15;14.30;99.90
52509;DHT22;38420;53.150;6.370;2022-08-19T04:27:41;13.80;99.90
52509;DHT22;38420;53.150;6.370;2022-08-19T04:30:12;14.60;99.90
52509;DHT22;38420;53.150;6.370;2022-08-19T04:32:37;13.90;99.90
52509;DHT22;38420;53.150;6.370;2022-08-19T04:35:04;14.60;99.90
52509;DHT22;38420;53.150;6.370;2022-08-19T04:37:30;13.90;99.90
52509;DHT22;38420;53.150;6.370;2022-08-19T04:39:57;14.00;99.90
52509;DHT22;38420;53.150;6.370;2022-08-19T04:42:41;14.70;99.90
52509;DHT22;38420;53.150;6.370;2022-08-19T04:45:09;14.50;99.90
52509;DHT22;38420;53.150;6.370;2022-08-19T04:47:38;14.00;99.90
52509;DHT22;38420;53.150;6.370;2022-08-19T04:50:05;14.60;99.90
52509;DHT22;38420;53.150;6.370;2022-08-19T04:52:30;14.10;99.90
52509;DHT22;38420;53.150;6.370;2022-08-19T04:54:57;14.80;99.90
52509;DHT22;38420;53.150;6.370;2022-08-19T04:57:23;14.20;99.90
52509;DHT22;38420;53.150;6.370;2022-08-19T04:59:48;14.80;99.90
52509;DHT22;38420;53.150;6.370;2022-08-19T05:02:14;14.30;99.90
52509;DHT22;38420;53.150;6.370;2022-08-19T05:04:40;14.10;99.90
52509;DHT22;38420;53.150;6.370;2022-08-19T05:07:06;14.40;99.90
52509;DHT22;38420;53.150;6.370;2022-08-19T05:09:32;14.30;99.90
52509;DHT22;38420;53.150;6.370;2022-08-19T05:11:58;13.90;99.90
52509;DHT22;38420;53.150;6.370;2022-08-19T05:14:25;13.90;99.90
52509;DHT22;38420;53.150;6.370;2022-08-19T05:16:51;14.00;99.90
52509;DHT22;38420;53.150;6.370;2022-08-19T05:19:16;14.60;99.90
52509;DHT22;38420;53.150;6.370;2022-08-19T05:22:00;14.40;99.90
52509;DHT22;38420;53.150;6.370;2022-08-19T05:24:44;14.70;99.90
52509;DHT22;38420;53.150;6.370;2022-08-19T05:27:10;14.40;99.90
52509;DHT22;38420;53.150;6.370;2022-08-19T05:29:35;14.10;99.90
52509;DHT22;38420;53.150;6.370;2022-08-19T05:32:02;14.10;99.90
52509;DHT22;38420;53.150;6.370;2022-08-19T05:34:27;14.80;99.90
52509;DHT22;38420;53.150;6.370;2022-08-19T05:36:55;14.40;99.90
52509;DHT22;38420;53.150;6.370;2022-08-19T05:39:23;14.40;99.90
52509;DHT22;38420;53.150;6.370;2022-08-19T05:41:50;14.30;99.90
52509;DHT22;38420;53.150;6.370;2022-08-19T05:44:16;14.70;99.90
52509;DHT22;38420;53.150;6.370;2022-08-19T05:46:45;14.50;99.90
52509;DHT22;38420;53.150;6.370;2022-08-19T05:49:14;14.70;99.90
52509;DHT22;38420;53.150;6.370;2022-08-19T05:51:41;15.00;99.90
52509;DHT22;38420;53.150;6.370;2022-08-19T05:54:06;15.30;99.90
52509;DHT22;38420;53.150;6.370;2022-08-19T05:56:33;15.30;99.90
52509;DHT22;38420;53.150;6.370;2022-08-19T05:59:01;15.00;99.90
52509;DHT22;38420;53.150;6.370;2022-08-19T06:01:27;14.90;99.90
52509;DHT22;38420;53.150;6.370;2022-08-19T06:03:53;15.00;99.90
52509;DHT22;38420;53.150;6.370;2022-08-19T06:06:19;15.30;99.90
52509;DHT22;38420;53.150;6.370;2022-08-19T06:08:44;16.00;99.90
52509;DHT22;38420;53.150;6.370;2022-08-19T06:11:17;15.50;99.90
52509;DHT22;38420;53.150;6.370;2022-08-19T06:13:44;15.30;99.90
52509;DHT22;38420;53.150;6.370;2022-08-19T06:16:12;15.50;99.90
52509;DHT22;38420;53.150;6.370;2022-08-19T06:18:37;15.70;99.90
52509;DHT22;38420;53.150;6.370;2022-08-19T06:21:03;15.80;99.90
52509;DHT22;38420;53.150;6.370;2022-08-19T06:23:29;15.80;99.90
52509;DHT22;38420;53.150;6.370;2022-08-19T06:25:56;16.00;99.90
52509;DHT22;38420;53.150;6.370;2022-08-19T06:28:21;15.70;99.90
52509;DHT22;38420;53.150;6.370;2022-08-19T06:30:49;16.00;99.90
52509;DHT22;38420;53.150;6.370;2022-08-19T06:33:15;16.00;99.90
52509;DHT22;38420;53.150;6.370;2022-08-19T06:35:41;16.70;99.90
52509;DHT22;38420;53.150;6.370;2022-08-19T06:38:06;16.10;99.90
52509;DHT22;38420;53.150;6.370;2022-08-19T06:40:32;16.30;99.90
52509;DHT22;38420;53.150;6.370;2022-08-19T06:42:57;16.10;99.90
52509;DHT22;38420;53.150;6.370;2022-08-19T06:45:25;17.10;99.90
52509;DHT22;38420;53.150;6.370;2022-08-19T06:47:51;16.50;99.90
52509;DHT22;38420;53.150;6.370;2022-08-19T06:50:21;16.60;99.90
52509;DHT22;38420;53.150;6.370;2022-08-19T06:52:47;16.40;99.90
52509;DHT22;38420;53.150;6.370;2022-08-19T06:55:13;16.90;99.90
52509;DHT22;38420;53.150;6.370;2022-08-19T06:57:38;17.20;99.90
52509;DHT22;38420;53.150;6.370;2022-08-19T07:00:05;17.00;99.90
52509;DHT22;38420;53.150;6.370;2022-08-19T07:02:32;17.00;99.90
52509;DHT22;38420;53.150;6.370;2022-08-19T07:04:57;17.00;99.90
52509;DHT22;38420;53.150;6.370;2022-08-19T07:07:23;17.60;99.90
52509;DHT22;38420;53.150;6.370;2022-08-19T07:09:49;17.60;99.90
52509;DHT22;38420;53.150;6.370;2022-08-19T07:12:15;17.90;99.90
52509;DHT22;38420;53.150;6.370;2022-08-19T07:14:41;17.90;99.90
52509;DHT22;38420;53.150;6.370;2022-08-19T07:17:08;17.60;99.90
52509;DHT22;38420;53.150;6.370;2022-08-19T07:19:35;17.70;99.90
52509;DHT22;38420;53.150;6.370;2022-08-19T07:22:01;18.10;99.90
52509;DHT22;38420;53.150;6.370;2022-08-19T07:24:27;18.10;99.90
52509;DHT22;38420;53.150;6.370;2022-08-19T07:26:54;18.30;99.90
52509;DHT22;38420;53.150;6.370;2022-08-19T07:29:20;18.40;99.90
52509;DHT22;38420;53.150;6.370;2022-08-19T07:31:49;18.40;99.90
52509;DHT22;38420;53.150;6.370;2022-08-19T07:34:15;18.40;99.90
52509;DHT22;38420;53.150;6.370;2022-08-19T07:36:41;18.80;99.90
52509;DHT22;38420;53.150;6.370;2022-08-19T07:39:10;18.30;99.90
52509;DHT22;38420;53.150;6.370;2022-08-19T07:41:36;19.10;99.90
52509;DHT22;38420;53.150;6.370;2022-08-19T07:44:02;19.20;99.90
52509;DHT22;38420;53.150;6.370;2022-08-19T07:46:32;19.00;99.90
52509;DHT22;38420;53.150;6.370;2022-08-19T07:48:59;19.40;99.90
52509;DHT22;38420;53.150;6.370;2022-08-19T07:51:25;19.50;99.90
52509;DHT22;38420;53.150;6.370;2022-08-19T07:53:51;19.60;99.90
52509;DHT22;38420;53.150;6.370;2022-08-19T07:56:17;19.70;99.90
52509;DHT22;38420;53.150;6.370;2022-08-19T07:58:44;19.80;99.90
52509;DHT22;38420;53.150;6.370;2022-08-19T08:01:14;19.90;99.90
52509;DHT22;38420;53.150;6.370;2022-08-19T08:03:40;20.10;99.90
52509;DHT22;38420;53.150;6.370;2022-08-19T08:06:25;20.10;99.90
52509;DHT22;38420;53.150;6.370;2022-08-19T08:09:09;20.50;99.90
52509;DHT22;38420;53.150;6.370;2022-08-19T08:11:42;21.60;99.90
52509;DHT22;38420;53.150;6.370;2022-08-19T08:14:08;22.50;99.90
52509;DHT22;38420;53.150;6.370;2022-08-19T08:16:36;23.60;99.90
52509;DHT22;38420;53.150;6.370;2022-08-19T08:19:03;24.10;99.90
52509;DHT22;38420;53.150;6.370;2022-08-19T08:21:28;25.00;99.90
52509;DHT22;38420;53.150;6.370;2022-08-19T08:23:54;25.40;99.90
52509;DHT22;38420;53.150;6.370;2022-08-19T08:26:20;25.90;99.90
52509;DHT22;38420;53.150;6.370;2022-08-19T08:28:46;26.10;99.90
52509;DHT22;38420;53.150;6.370;2022-08-19T08:31:13;26.50;99.90
52509;DHT22;38420;53.150;6.370;2022-08-19T08:33:39;26.80;99.90
52509;DHT22;38420;53.150;6.370;2022-08-19T08:36:07;26.90;99.90
52509;DHT22;38420;53.150;6.370;2022-08-19T08:38:33;27.00;99.90
52509;DHT22;38420;53.150;6.370;2022-08-19T08:41:47;27.30;99.90
52509;DHT22;38420;53.150;6.370;2022-08-19T08:43:46;26.80;99.90
52509;DHT22;38420;53.150;6.370;2022-08-19T08:46:13;27.30;99.90
52509;DHT22;38420;53.150;6.370;2022-08-19T08:48:45;27.60;99.90
52509;DHT22;38420;53.150;6.370;2022-08-19T08:51:25;27.70;99.90
52509;DHT22;38420;53.150;6.370;2022-08-19T08:53:52;27.60;99.90
52509;DHT22;38420;53.150;6.370;2022-08-19T08:56:18;27.90;99.90
52509;DHT22;38420;53.150;6.370;2022-08-19T08:58:46;28.10;99.90
52509;DHT22;38420;53.150;6.370;2022-08-19T09:01:13;28.10;99.90
52509;DHT22;38420;53.150;6.370;2022-08-19T09:03:40;27.70;99.90
52509;DHT22;38420;53.150;6.370;2022-08-19T09:06:10;27.70;99.90
52509;DHT22;38420;53.150;6.370;2022-08-19T09:11:04;27.70;99.90
52509;DHT22;38420;53.150;6.370;2022-08-19T09:16:07;27.80;99.90
52509;DHT22;38420;53.150;6.370;2022-08-19T09:21:06;28.10;99.90
52509;DHT22;38420;53.150;6.370;2022-08-19T09:23:34;27.90;99.90
52509;DHT22;38420;53.150;6.370;2022-08-19T09:26:00;27.60;99.90
52509;DHT22;38420;53.150;6.370;2022-08-19T09:28:25;26.80;99.90
52509;DHT22;38420;53.150;6.370;2022-08-19T09:30:51;26.50;99.90
52509;DHT22;38420;53.150;6.370;2022-08-19T09:33:16;26.30;99.90
52509;DHT22;38420;53.150;6.370;2022-08-19T09:35:42;26.10;99.90
52509;DHT22;38420;53.150;6.370;2022-08-19T09:38:08;26.00;99.90
52509;DHT22;38420;53.150;6.370;2022-08-19T09:40:33;25.80;99.90
52509;DHT22;38420;53.150;6.370;2022-08-19T09:42:59;25.70;99.90
52509;DHT22;38420;53.150;6.370;2022-08-19T09:45:28;25.70;99.90
52509;DHT22;38420;53.150;6.370;2022-08-19T09:47:53;25.60;99.90
52509;DHT22;38420;53.150;6.370;2022-08-19T09:50:19;25.60;99.90
52509;DHT22;38420;53.150;6.370;2022-08-19T09:52:45;25.40;99.90
52509;DHT22;38420;53.150;6.370;2022-08-19T09:55:11;25.40;99.90
52509;DHT22;38420;53.150;6.370;2022-08-19T09:57:37;25.40;99.90
52509;DHT22;38420;53.150;6.370;2022-08-19T10:00:03;25.50;99.90
52509;DHT22;38420;53.150;6.370;2022-08-19T10:02:29;25.40;99.90
52509;DHT22;38420;53.150;6.370;2022-08-19T10:04:55;25.40;99.90
52509;DHT22;38420;53.150;6.370;2022-08-19T10:07:39;25.40;99.90
52509;DHT22;38420;53.150;6.370;2022-08-19T10:10:05;25.40;99.90
52509;DHT22;38420;53.150;6.370;2022-08-19T10:12:32;25.40;99.90
52509;DHT22;38420;53.150;6.370;2022-08-19T10:14:58;25.40;99.90
52509;DHT22;38420;53.150;6.370;2022-08-19T10:17:24;25.50;99.90
52509;DHT22;38420;53.150;6.370;2022-08-19T10:19:50;25.40;99.90
52509;DHT22;38420;53.150;6.370;2022-08-19T10:22:17;25.30;99.90
52509;DHT22;38420;53.150;6.370;2022-08-19T10:24:42;25.40;99.90
52509;DHT22;38420;53.150;6.370;2022-08-19T10:27:08;25.40;99.90
52509;DHT22;38420;53.150;6.370;2022-08-19T10:29:34;25.40;99.90
52509;DHT22;38420;53.150;6.370;2022-08-19T10:32:00;25.30;99.90
52509;DHT22;38420;53.150;6.370;2022-08-19T10:34:26;25.40;99.90
52509;DHT22;38420;53.150;6.370;2022-08-19T10:36:52;25.50;99.90
52509;DHT22;38420;53.150;6.370;2022-08-19T10:39:17;25.60;99.90
52509;DHT22;38420;53.150;6.370;2022-08-19T10:41:43;25.60;99.90
52509;DHT22;38420;53.150;6.370;2022-08-19T10:44:11;25.60;99.90
52509;DHT22;38420;53.150;6.370;2022-08-19T10:46:38;25.60;99.90
52509;DHT22;38420;53.150;6.370;2022-08-19T10:49:07;25.70;99.90
52509;DHT22;38420;53.150;6.370;2022-08-19T10:51:33;25.80;99.90
52509;DHT22;38420;53.150;6.370;2022-08-19T10:54:17;25.80;99.90
52509;DHT22;38420;53.150;6.370;2022-08-19T10:56:43;25.90;99.90
52509;DHT22;38420;53.150;6.370;2022-08-19T11:01:44;26.00;99.90
52509;DHT22;38420;53.150;6.370;2022-08-19T11:04:10;26.20;99.90
52509;DHT22;38420;53.150;6.370;2022-08-19T11:06:36;26.30;99.90
52509;DHT22;38420;53.150;6.370;2022-08-19T11:09:04;26.30;99.90
52509;DHT22;38420;53.150;6.370;2022-08-19T11:11:30;26.10;99.90
52509;DHT22;38420;53.150;6.370;2022-08-19T11:13:57;25.90;99.90
52509;DHT22;38420;53.150;6.370;2022-08-19T11:16:24;25.70;99.90
52509;DHT22;38420;53.150;6.370;2022-08-19T11:18:52;25.50;99.90
52509;DHT22;38420;53.150;6.370;2022-08-19T11:21:22;25.40;99.90
52509;DHT22;38420;53.150;6.370;2022-08-19T11:23:48;25.30;99.90
52509;DHT22;38420;53.150;6.370;2022-08-19T11:26:15;25.30;99.90
52509;DHT22;38420;53.150;6.370;2022-08-19T11:28:41;25.30;99.90
52509;DHT22;38420;53.150;6.370;2022-08-19T11:31:12;25.30;99.90
52509;DHT22;38420;53.150;6.370;2022-08-19T11:33:38;25.30;99.90
52509;DHT22;38420;53.150;6.370;2022-08-19T11:36:04;25.30;99.90
52509;DHT22;38420;53.150;6.370;2022-08-19T11:38:29;25.30;99.90
52509;DHT22;38420;53.150;6.370;2022-08-19T11:40:56;25.20;99.90
52509;DHT22;38420;53.150;6.370;2022-08-19T11:43:22;25.20;99.90
52509;DHT22;38420;53.150;6.370;2022-08-19T11:45:47;25.10;99.90
52509;DHT22;38420;53.150;6.370;2022-08-19T11:48:13;25.00;99.90
52509;DHT22;38420;53.150;6.370;2022-08-19T11:50:39;25.00;99.90
52509;DHT22;38420;53.150;6.370;2022-08-19T11:53:07;24.90;99.90
52509;DHT22;38420;53.150;6.370;2022-08-19T11:55:36;24.90;99.90
52509;DHT22;38420;53.150;6.370;2022-08-19T11:58:01;24.90;99.90
52509;DHT22;38420;53.150;6.370;2022-08-19T12:00:27;25.00;99.90
52509;DHT22;38420;53.150;6.370;2022-08-19T12:02:52;25.10;99.90
52509;DHT22;38420;53.150;6.370;2022-08-19T12:05:18;25.20;99.90
52509;DHT22;38420;53.150;6.370;2022-08-19T12:07:43;25.30;99.90
52509;DHT22;38420;53.150;6.370;2022-08-19T12:10:09;25.50;99.90
52509;DHT22;38420;53.150;6.370;2022-08-19T12:12:35;25.70;99.90
52509;DHT22;38420;53.150;6.370;2022-08-19T12:15:00;25.70;99.90
52509;DHT22;38420;53.150;6.370;2022-08-19T12:17:26;25.60;99.90
52509;DHT22;38420;53.150;6.370;2022-08-19T12:19:52;25.60;99.90
52509;DHT22;38420;53.150;6.370;2022-08-19T12:22:18;25.50;99.90
52509;DHT22;38420;53.150;6.370;2022-08-19T12:24:43;25.40;99.90
52509;DHT22;38420;53.150;6.370;2022-08-19T12:27:09;25.30;99.90
52509;DHT22;38420;53.150;6.370;2022-08-19T12:29:34;25.30;99.90
52509;DHT22;38420;53.150;6.370;2022-08-19T12:32:00;25.20;99.90
52509;DHT22;38420;53.150;6.370;2022-08-19T12:34:28;25.00;99.90
52509;DHT22;38420;53.150;6.370;2022-08-19T12:36:57;25.00;99.90
52509;DHT22;38420;53.150;6.370;2022-08-19T12:39:22;24.90;99.90
52509;DHT22;38420;53.150;6.370;2022-08-19T12:41:48;24.90;99.90
52509;DHT22;38420;53.150;6.370;2022-08-19T12:44:14;24.90;99.90
52509;DHT22;38420;53.150;6.370;2022-08-19T12:46:40;24.90;99.90
52509;DHT22;38420;53.150;6.370;2022-08-19T12:49:05;24.80;99.90
52509;DHT22;38420;53.150;6.370;2022-08-19T12:51:31;24.70;99.90
52509;DHT22;38420;53.150;6.370;2022-08-19T12:53:57;24.60;99.90
52509;DHT22;38420;53.150;6.370;2022-08-19T12:56:22;24.50;99.90
52509;DHT22;38420;53.150;6.370;2022-08-19T12:58:48;24.40;99.90
52509;DHT22;38420;53.150;6.370;2022-08-19T13:01:15;24.50;99.90
52509;DHT22;38420;53.150;6.370;2022-08-19T13:03:41;24.40;99.90
52509;DHT22;38420;53.150;6.370;2022-08-19T13:06:07;24.30;99.90
52509;DHT22;38420;53.150;6.370;2022-08-19T13:08:33;24.30;99.90
52509;DHT22;38420;53.150;6.370;2022-08-19T13:11:06;24.40;99.90
52509;DHT22;38420;53.150;6.370;2022-08-19T13:13:32;24.30;99.90
52509;DHT22;38420;53.150;6.370;2022-08-19T13:15:59;24.20;99.90
52509;DHT22;38420;53.150;6.370;2022-08-19T13:18:26;24.10;99.90
52509;DHT22;38420;53.150;6.370;2022-08-19T13:20:52;24.10;99.90
52509;DHT22;38420;53.150;6.370;2022-08-19T13:23:18;24.10;99.90
52509;DHT22;38420;53.150;6.370;2022-08-19T13:25:43;23.90;99.90
52509;DHT22;38420;53.150;6.370;2022-08-19T13:28:09;23.80;99.90
52509;DHT22;38420;53.150;6.370;2022-08-19T13:30:34;23.70;99.90
52509;DHT22;38420;53.150;6.370;2022-08-19T13:33:19;23.70;99.90
52509;DHT22;38420;53.150;6.370;2022-08-19T13:38:14;23.50;99.90
52509;DHT22;38420;53.150;6.370;2022-08-19T13:40:40;23.50;99.90
52509;DHT22;38420;53.150;6.370;2022-08-19T13:43:06;23.40;99.90
52509;DHT22;38420;53.150;6.370;2022-08-19T13:45:32;23.40;99.90
52509;DHT22;38420;53.150;6.370;2022-08-19T13:48:02;23.40;99.90
52509;DHT22;38420;53.150;6.370;2022-08-19T13:50:32;23.30;99.90
52509;DHT22;38420;53.150;6.370;2022-08-19T13:52:58;23.30;99.90
52509;DHT22;38420;53.150;6.370;2022-08-19T13:55:24;23.30;99.90
52509;DHT22;38420;53.150;6.370;2022-08-19T13:57:53;23.40;99.90
52509;DHT22;38420;53.150;6.370;2022-08-19T14:00:19;23.40;99.90
52509;DHT22;38420;53.150;6.370;2022-08-19T14:02:45;23.40;99.90
52509;DHT22;38420;53.150;6.370;2022-08-19T14:05:12;23.50;99.90
52509;DHT22;38420;53.150;6.370;2022-08-19T14:07:37;23.50;99.90
52509;DHT22;38420;53.150;6.370;2022-08-19T14:10:04;23.60;99.90
52509;DHT22;38420;53.150;6.370;2022-08-19T14:12:31;23.60;99.90
52509;DHT22;38420;53.150;6.370;2022-08-19T14:14:57;23.60;99.90
52509;DHT22;38420;53.150;6.370;2022-08-19T14:17:23;23.80;99.90
52509;DHT22;38420;53.150;6.370;2022-08-19T14:19:48;23.70;99.90
52509;DHT22;38420;53.150;6.370;2022-08-19T14:22:14;23.70;99.90
52509;DHT22;38420;53.150;6.370;2022-08-19T14:24:39;23.70;99.90
52509;DHT22;38420;53.150;6.370;2022-08-19T14:27:05;23.80;99.90
52509;DHT22;38420;53.150;6.370;2022-08-19T14:29:31;23.80;99.90
52509;DHT22;38420;53.150;6.370;2022-08-19T14:31:57;23.80;99.90
52509;DHT22;38420;53.150;6.370;2022-08-19T14:34:24;23.80;99.90
52509;DHT22;38420;53.150;6.370;2022-08-19T14:36:50;23.90;99.90
52509;DHT22;38420;53.150;6.370;2022-08-19T14:39:15;23.90;99.90
52509;DHT22;38420;53.150;6.370;2022-08-19T14:41:41;23.90;99.90
52509;DHT22;38420;53.150;6.370;2022-08-19T14:44:07;23.90;99.90
52509;DHT22;38420;53.150;6.370;2022-08-19T14:46:35;23.80;99.90
52509;DHT22;38420;53.150;6.370;2022-08-19T14:49:00;23.80;99.90
52509;DHT22;38420;53.150;6.370;2022-08-19T14:51:26;23.70;99.90
52509;DHT22;38420;53.150;6.370;2022-08-19T14:53:52;23.70;99.90
52509;DHT22;38420;53.150;6.370;2022-08-19T14:56:19;23.70;99.90
52509;DHT22;38420;53.150;6.370;2022-08-19T14:58:45;23.70;99.90
52509;DHT22;38420;53.150;6.370;2022-08-19T15:01:11;23.80;99.90
52509;DHT22;38420;53.150;6.370;2022-08-19T15:03:37;23.80;99.90
52509;DHT22;38420;53.150;6.370;2022-08-19T15:06:03;23.90;99.90
52509;DHT22;38420;53.150;6.370;2022-08-19T15:08:30;23.90;99.90
52509;DHT22;38420;53.150;6.370;2022-08-19T15:10:56;23.80;99.90
52509;DHT22;38420;53.150;6.370;2022-08-19T15:13:22;23.80;99.90
52509;DHT22;38420;53.150;6.370;2022-08-19T15:15:49;23.80;99.90
52509;DHT22;38420;53.150;6.370;2022-08-19T15:18:17;23.70;99.90
52509;DHT22;38420;53.150;6.370;2022-08-19T15:20:43;23.70;99.90
52509;DHT22;38420;53.150;6.370;2022-08-19T15:23:09;23.70;99.90
52509;DHT22;38420;53.150;6.370;2022-08-19T15:25:36;23.70;99.90
52509;DHT22;38420;53.150;6.370;2022-08-19T15:28:01;23.70;99.90
52509;DHT22;38420;53.150;6.370;2022-08-19T15:30:28;23.70;99.90
52509;DHT22;38420;53.150;6.370;2022-08-19T15:32:54;23.70;99.90
52509;DHT22;38420;53.150;6.370;2022-08-19T15:35:20;23.70;99.90
52509;DHT22;38420;53.150;6.370;2022-08-19T15:37:48;23.80;99.90
52509;DHT22;38420;53.150;6.370;2022-08-19T15:40:13;23.80;99.90